sensor_id;sensor_type;location;lat;lon;timestamp;P1;durP1;ratioP1;P2;durP2;ratioP2
26512;SDS011;14186;53.822;10.152;2022-09-14T00:03:11;6.22;;;1.15;;
26512;SDS011;14186;53.822;10.152;2022-09-14T00:08:11;7.47;;;1.10;;
26512;SDS011;14186;53.822;10.152;2022-09-14T00:13:13;4.28;;;1.20;;
26512;SDS011;14186;53.822;10.152;2022-09-14T00:18:14;11.63;;;1.52;;
26512;SDS011;14186;53.822;10.152;2022-09-14T00:23:14;8.23;;;1.63;;
26512;SDS011;14186;53.822;10.152;2022-09-14T00:28:15;10.32;;;1.60;;
26512;SDS011;14186;53.822;10.152;2022-09-14T00:33:16;10.43;;;1.27;;
26512;SDS011;14186;53.822;10.152;2022-09-14T00:38:16;9.55;;;1.52;;
26512;SDS011;14186;53.822;10.152;2022-09-14T00:43:18;8.05;;;1.15;;
26512;SDS011;14186;53.822;10.152;2022-09-14T00:48:18;11.80;;;1.88;;
26512;SDS011;14186;53.822;10.152;2022-09-14T00:53:19;12.48;;;1.45;;
26512;SDS011;14186;53.822;10.152;2022-09-14T00:58:21;8.02;;;1.50;;
26512;SDS011;14186;53.822;10.152;2022-09-14T01:03:21;8.02;;;1.20;;
26512;SDS011;14186;53.822;10.152;2022-09-14T01:08:24;10.45;;;1.48;;
26512;SDS011;14186;53.822;10.152;2022-09-14T01:13:30;6.78;;;1.20;;
26512;SDS011;14186;53.822;10.152;2022-09-14T01:18:33;8.47;;;1.40;;
26512;SDS011;14186;53.822;10.152;2022-09-14T01:23:36;9.63;;;1.80;;
26512;SDS011;14186;53.822;10.152;2022-09-14T01:28:42;10.75;;;1.58;;
26512;SDS011;14186;53.822;10.152;2022-09-14T01:33:48;8.13;;;1.17;;
26512;SDS011;14186;53.822;10.152;2022-09-14T01:38:50;9.75;;;1.38;;
26512;SDS011;14186;53.822;10.152;2022-09-14T01:43:54;9.05;;;1.50;;
26512;SDS011;14186;53.822;10.152;2022-09-14T01:48:57;5.82;;;0.90;;
26512;SDS011;14186;53.822;10.152;2022-09-14T01:54:02;10.43;;;2.43;;
26512;SDS011;14186;53.822;10.152;2022-09-14T01:59:06;5.85;;;1.52;;
26512;SDS011;14186;53.822;10.152;2022-09-14T02:04:08;7.05;;;1.73;;
26512;SDS011;14186;53.822;10.152;2022-09-14T02:09:09;5.45;;;1.30;;
26512;SDS011;14186;53.822;10.152;2022-09-14T02:14:12;7.50;;;1.50;;
26512;SDS011;14186;53.822;10.152;2022-09-14T02:19:13;5.40;;;1.55;;
26512;SDS011;14186;53.822;10.152;2022-09-14T02:24:14;7.63;;;2.33;;
26512;SDS011;14186;53.822;10.152;2022-09-14T02:29:16;10.55;;;1.85;;
26512;SDS011;14186;53.822;10.152;2022-09-14T02:34:19;9.30;;;1.67;;
26512;SDS011;14186;53.822;10.152;2022-09-14T02:39:25;8.73;;;1.60;;
26512;SDS011;14186;53.822;10.152;2022-09-14T02:44:28;8.05;;;1.67;;
26512;SDS011;14186;53.822;10.152;2022-09-14T02:49:33;8.52;;;2.15;;
26512;SDS011;14186;53.822;10.152;2022-09-14T02:54:34;8.35;;;1.90;;
26512;SDS011;14186;53.822;10.152;2022-09-14T02:59:36;11.27;;;2.05;;
26512;SDS011;14186;53.822;10.152;2022-09-14T03:04:38;9.55;;;1.63;;
26512;SDS011;14186;53.822;10.152;2022-09-14T03:09:38;12.80;;;3.60;;
26512;SDS011;14186;53.822;10.152;2022-09-14T03:14:39;10.18;;;2.72;;
26512;SDS011;14186;53.822;10.152;2022-09-14T03:19:42;6.05;;;1.55;;
26512;SDS011;14186;53.822;10.152;2022-09-14T03:24:42;5.72;;;1.65;;
26512;SDS011;14186;53.822;10.152;2022-09-14T03:29:44;12.80;;;2.25;;
26512;SDS011;14186;53.822;10.152;2022-09-14T03:34:44;11.48;;;1.65;;
26512;SDS011;14186;53.822;10.152;2022-09-14T03:39:44;9.15;;;2.10;;
26512;SDS011;14186;53.822;10.152;2022-09-14T03:44:45;9.73;;;2.10;;
26512;SDS011;14186;53.822;10.152;2022-09-14T03:49:46;10.23;;;1.85;;
26512;SDS011;14186;53.822;10.152;2022-09-14T03:54:46;8.70;;;1.90;;
26512;SDS011;14186;53.822;10.152;2022-09-14T03:59:50;9.70;;;2.15;;
26512;SDS011;14186;53.822;10.152;2022-09-14T04:04:50;8.43;;;2.08;;
26512;SDS011;14186;53.822;10.152;2022-09-14T04:09:50;11.53;;;2.37;;
26512;SDS011;14186;53.822;10.152;2022-09-14T04:14:52;11.93;;;2.58;;
26512;SDS011;14186;53.822;10.152;2022-09-14T04:19:53;5.85;;;1.88;;
26512;SDS011;14186;53.822;10.152;2022-09-14T04:24:53;9.27;;;2.15;;
26512;SDS011;14186;53.822;10.152;2022-09-14T04:29:55;13.40;;;2.45;;
26512;SDS011;14186;53.822;10.152;2022-09-14T04:34:55;9.18;;;2.40;;
26512;SDS011;14186;53.822;10.152;2022-09-14T04:39:55;10.68;;;2.28;;
26512;SDS011;14186;53.822;10.152;2022-09-14T04:44:57;9.13;;;2.80;;
26512;SDS011;14186;53.822;10.152;2022-09-14T04:49:57;14.68;;;2.38;;
26512;SDS011;14186;53.822;10.152;2022-09-14T04:54:57;9.50;;;2.35;;
26512;SDS011;14186;53.822;10.152;2022-09-14T04:59:59;5.85;;;1.67;;
26512;SDS011;14186;53.822;10.152;2022-09-14T05:04:59;7.38;;;2.38;;
26512;SDS011;14186;53.822;10.152;2022-09-14T05:09:59;9.77;;;1.88;;
26512;SDS011;14186;53.822;10.152;2022-09-14T05:15:01;6.60;;;1.80;;
26512;SDS011;14186;53.822;10.152;2022-09-14T05:20:01;8.82;;;1.60;;
26512;SDS011;14186;53.822;10.152;2022-09-14T05:25:01;8.85;;;2.08;;
26512;SDS011;14186;53.822;10.152;2022-09-14T05:30:03;5.03;;;1.48;;
26512;SDS011;14186;53.822;10.152;2022-09-14T05:35:04;5.50;;;1.65;;
26512;SDS011;14186;53.822;10.152;2022-09-14T05:40:04;7.50;;;1.55;;
26512;SDS011;14186;53.822;10.152;2022-09-14T05:45:06;6.95;;;1.55;;
26512;SDS011;14186;53.822;10.152;2022-09-14T05:50:09;7.28;;;1.88;;
26512;SDS011;14186;53.822;10.152;2022-09-14T05:55:09;3.85;;;1.25;;
26512;SDS011;14186;53.822;10.152;2022-09-14T06:00:12;8.27;;;1.50;;
26512;SDS011;14186;53.822;10.152;2022-09-14T06:05:12;5.60;;;1.52;;
26512;SDS011;14186;53.822;10.152;2022-09-14T06:10:12;7.73;;;2.33;;
26512;SDS011;14186;53.822;10.152;2022-09-14T06:15:14;5.97;;;1.77;;
26512;SDS011;14186;53.822;10.152;2022-09-14T06:20:15;4.90;;;1.40;;
26512;SDS011;14186;53.822;10.152;2022-09-14T06:25:15;10.82;;;1.58;;
26512;SDS011;14186;53.822;10.152;2022-09-14T06:30:17;8.20;;;1.90;;
26512;SDS011;14186;53.822;10.152;2022-09-14T06:35:17;7.65;;;2.15;;
26512;SDS011;14186;53.822;10.152;2022-09-14T06:40:17;7.13;;;3.13;;
26512;SDS011;14186;53.822;10.152;2022-09-14T06:45:19;6.82;;;1.75;;
26512;SDS011;14186;53.822;10.152;2022-09-14T06:50:20;8.27;;;1.42;;
26512;SDS011;14186;53.822;10.152;2022-09-14T06:55:20;6.63;;;1.83;;
26512;SDS011;14186;53.822;10.152;2022-09-14T07:00:22;8.15;;;1.77;;
26512;SDS011;14186;53.822;10.152;2022-09-14T07:05:22;3.90;;;1.27;;
26512;SDS011;14186;53.822;10.152;2022-09-14T07:10:22;7.05;;;1.40;;
26512;SDS011;14186;53.822;10.152;2022-09-14T07:15:24;6.70;;;1.40;;
26512;SDS011;14186;53.822;10.152;2022-09-14T07:20:24;4.60;;;1.80;;
26512;SDS011;14186;53.822;10.152;2022-09-14T07:25:25;4.32;;;0.93;;
26512;SDS011;14186;53.822;10.152;2022-09-14T07:30:26;7.97;;;1.38;;
26512;SDS011;14186;53.822;10.152;2022-09-14T07:35:26;9.85;;;1.40;;
26512;SDS011;14186;53.822;10.152;2022-09-14T07:40:26;7.68;;;1.88;;
26512;SDS011;14186;53.822;10.152;2022-09-14T07:45:28;9.02;;;1.95;;
26512;SDS011;14186;53.822;10.152;2022-09-14T07:50:28;10.77;;;1.67;;
26512;SDS011;14186;53.822;10.152;2022-09-14T07:55:28;10.30;;;1.52;;
26512;SDS011;14186;53.822;10.152;2022-09-14T08:00:30;7.43;;;2.13;;
26512;SDS011;14186;53.822;10.152;2022-09-14T08:05:30;6.78;;;2.17;;
26512;SDS011;14186;53.822;10.152;2022-09-14T08:10:33;14.07;;;3.65;;
26512;SDS011;14186;53.822;10.152;2022-09-14T08:15:35;12.52;;;2.83;;
26512;SDS011;14186;53.822;10.152;2022-09-14T08:20:35;20.73;;;3.47;;
26512;SDS011;14186;53.822;10.152;2022-09-14T08:25:35;18.45;;;3.85;;
26512;SDS011;14186;53.822;10.152;2022-09-14T08:30:37;17.00;;;2.90;;
26512;SDS011;14186;53.822;10.152;2022-09-14T08:35:40;16.77;;;3.00;;
26512;SDS011;14186;53.822;10.152;2022-09-14T08:40:44;16.30;;;2.70;;
26512;SDS011;14186;53.822;10.152;2022-09-14T08:45:46;12.73;;;2.80;;
26512;SDS011;14186;53.822;10.152;2022-09-14T08:50:47;11.35;;;2.13;;
26512;SDS011;14186;53.822;10.152;2022-09-14T08:55:48;8.13;;;1.70;;
26512;SDS011;14186;53.822;10.152;2022-09-14T09:00:53;8.00;;;1.33;;
26512;SDS011;14186;53.822;10.152;2022-09-14T09:05:57;5.18;;;1.30;;
26512;SDS011;14186;53.822;10.152;2022-09-14T09:11:01;7.03;;;1.13;;
26512;SDS011;14186;53.822;10.152;2022-09-14T09:16:03;8.70;;;1.35;;
26512;SDS011;14186;53.822;10.152;2022-09-14T09:21:06;7.30;;;0.80;;
26512;SDS011;14186;53.822;10.152;2022-09-14T09:26:10;7.60;;;1.20;;
26512;SDS011;14186;53.822;10.152;2022-09-14T09:31:15;5.85;;;1.02;;
26512;SDS011;14186;53.822;10.152;2022-09-14T09:36:17;4.20;;;0.80;;
26512;SDS011;14186;53.822;10.152;2022-09-14T09:41:18;7.53;;;1.02;;
26512;SDS011;14186;53.822;10.152;2022-09-14T09:46:20;4.22;;;0.80;;
26512;SDS011;14186;53.822;10.152;2022-09-14T09:51:25;5.63;;;1.23;;
26512;SDS011;14186;53.822;10.152;2022-09-14T09:56:27;4.28;;;0.82;;
26512;SDS011;14186;53.822;10.152;2022-09-14T10:01:29;5.10;;;0.98;;
26512;SDS011;14186;53.822;10.152;2022-09-14T10:06:30;6.70;;;1.13;;
26512;SDS011;14186;53.822;10.152;2022-09-14T10:11:31;5.68;;;0.98;;
26512;SDS011;14186;53.822;10.152;2022-09-14T10:16:35;6.00;;;1.05;;
26512;SDS011;14186;53.822;10.152;2022-09-14T10:21:35;9.15;;;1.13;;
26512;SDS011;14186;53.822;10.152;2022-09-14T10:26:57;8.18;;;1.33;;
26512;SDS011;14186;53.822;10.152;2022-09-14T10:31:59;6.82;;;0.90;;
26512;SDS011;14186;53.822;10.152;2022-09-14T10:37:04;7.07;;;1.40;;
26512;SDS011;14186;53.822;10.152;2022-09-14T10:42:09;8.00;;;1.17;;
26512;SDS011;14186;53.822;10.152;2022-09-14T10:47:20;7.57;;;1.17;;
26512;SDS011;14186;53.822;10.152;2022-09-14T10:52:25;3.38;;;1.20;;
26512;SDS011;14186;53.822;10.152;2022-09-14T10:57:33;11.65;;;1.70;;
26512;SDS011;14186;53.822;10.152;2022-09-14T11:02:44;6.68;;;1.92;;
26512;SDS011;14186;53.822;10.152;2022-09-14T11:07:49;9.48;;;2.25;;
26512;SDS011;14186;53.822;10.152;2022-09-14T11:12:57;6.40;;;1.20;;
26512;SDS011;14186;53.822;10.152;2022-09-14T11:18:12;7.57;;;1.60;;
26512;SDS011;14186;53.822;10.152;2022-09-14T11:23:18;6.65;;;2.50;;
26512;SDS011;14186;53.822;10.152;2022-09-14T11:28:23;4.15;;;1.02;;
26512;SDS011;14186;53.822;10.152;2022-09-14T11:33:25;4.80;;;1.38;;
26512;SDS011;14186;53.822;10.152;2022-09-14T11:38:27;9.13;;;1.50;;
26512;SDS011;14186;53.822;10.152;2022-09-14T11:43:29;8.15;;;1.17;;
26512;SDS011;14186;53.822;10.152;2022-09-14T11:48:34;6.10;;;0.90;;
26512;SDS011;14186;53.822;10.152;2022-09-14T11:53:36;8.43;;;1.20;;
26512;SDS011;14186;53.822;10.152;2022-09-14T11:58:38;9.63;;;1.45;;
26512;SDS011;14186;53.822;10.152;2022-09-14T12:03:49;6.90;;;1.45;;
26512;SDS011;14186;53.822;10.152;2022-09-14T12:08:50;8.15;;;1.10;;
26512;SDS011;14186;53.822;10.152;2022-09-14T12:19:11;5.85;;;1.05;;
26512;SDS011;14186;53.822;10.152;2022-09-14T12:24:18;8.55;;;1.42;;
26512;SDS011;14186;53.822;10.152;2022-09-14T12:29:23;6.25;;;1.10;;
26512;SDS011;14186;53.822;10.152;2022-09-14T12:34:26;5.15;;;1.17;;
26512;SDS011;14186;53.822;10.152;2022-09-14T12:39:27;4.63;;;0.90;;
26512;SDS011;14186;53.822;10.152;2022-09-14T12:44:28;6.88;;;1.45;;
26512;SDS011;14186;53.822;10.152;2022-09-14T12:49:31;6.35;;;1.52;;
26512;SDS011;14186;53.822;10.152;2022-09-14T12:54:37;3.93;;;1.10;;
26512;SDS011;14186;53.822;10.152;2022-09-14T12:59:41;6.40;;;1.10;;
26512;SDS011;14186;53.822;10.152;2022-09-14T13:04:44;4.55;;;1.00;;
26512;SDS011;14186;53.822;10.152;2022-09-14T13:09:45;4.90;;;1.13;;
26512;SDS011;14186;53.822;10.152;2022-09-14T13:14:46;4.57;;;0.80;;
26512;SDS011;14186;53.822;10.152;2022-09-14T13:19:53;7.88;;;1.10;;
26512;SDS011;14186;53.822;10.152;2022-09-14T13:24:54;2.75;;;1.05;;
26512;SDS011;14186;53.822;10.152;2022-09-14T13:29:58;2.23;;;0.70;;
26512;SDS011;14186;53.822;10.152;2022-09-14T13:35:01;4.35;;;0.90;;
26512;SDS011;14186;53.822;10.152;2022-09-14T13:40:02;2.72;;;0.60;;
26512;SDS011;14186;53.822;10.152;2022-09-14T13:45:03;4.28;;;1.02;;
26512;SDS011;14186;53.822;10.152;2022-09-14T13:50:05;3.05;;;1.17;;
26512;SDS011;14186;53.822;10.152;2022-09-14T13:55:08;4.32;;;1.10;;
26512;SDS011;14186;53.822;10.152;2022-09-14T14:00:14;9.55;;;2.03;;
26512;SDS011;14186;53.822;10.152;2022-09-14T14:05:23;9.45;;;1.92;;
26512;SDS011;14186;53.822;10.152;2022-09-14T14:10:26;3.25;;;0.77;;
26512;SDS011;14186;53.822;10.152;2022-09-14T14:20:47;3.67;;;0.80;;
26512;SDS011;14186;53.822;10.152;2022-09-14T14:25:48;5.28;;;0.88;;
26512;SDS011;14186;53.822;10.152;2022-09-14T14:30:48;4.50;;;0.88;;
26512;SDS011;14186;53.822;10.152;2022-09-14T14:35:51;2.95;;;0.55;;
26512;SDS011;14186;53.822;10.152;2022-09-14T14:40:52;2.65;;;0.80;;
26512;SDS011;14186;53.822;10.152;2022-09-14T14:45:54;4.05;;;0.70;;
26512;SDS011;14186;53.822;10.152;2022-09-14T14:50:56;3.85;;;0.60;;
26512;SDS011;14186;53.822;10.152;2022-09-14T14:55:57;1.65;;;0.50;;
26512;SDS011;14186;53.822;10.152;2022-09-14T15:00:57;3.08;;;0.60;;
26512;SDS011;14186;53.822;10.152;2022-09-14T15:05:59;1.88;;;0.50;;
26512;SDS011;14186;53.822;10.152;2022-09-14T15:11:13;3.08;;;0.57;;
26512;SDS011;14186;53.822;10.152;2022-09-14T15:16:14;1.20;;;0.40;;
26512;SDS011;14186;53.822;10.152;2022-09-14T15:21:15;2.47;;;0.52;;
26512;SDS011;14186;53.822;10.152;2022-09-14T15:26:16;2.60;;;0.57;;
26512;SDS011;14186;53.822;10.152;2022-09-14T15:31:16;2.90;;;0.55;;
26512;SDS011;14186;53.822;10.152;2022-09-14T15:41:47;2.83;;;0.82;;
26512;SDS011;14186;53.822;10.152;2022-09-14T15:46:47;1.60;;;0.60;;
26512;SDS011;14186;53.822;10.152;2022-09-14T15:51:48;4.18;;;0.80;;
26512;SDS011;14186;53.822;10.152;2022-09-14T15:56:50;3.85;;;0.80;;
26512;SDS011;14186;53.822;10.152;2022-09-14T16:01:52;5.82;;;0.95;;
26512;SDS011;14186;53.822;10.152;2022-09-14T16:06:52;3.20;;;0.77;;
26512;SDS011;14186;53.822;10.152;2022-09-14T16:11:53;2.23;;;0.40;;
26512;SDS011;14186;53.822;10.152;2022-09-14T16:16:54;4.75;;;0.65;;
26512;SDS011;14186;53.822;10.152;2022-09-14T16:21:54;1.02;;;0.30;;
26512;SDS011;14186;53.822;10.152;2022-09-14T16:26:57;1.52;;;0.32;;
26512;SDS011;14186;53.822;10.152;2022-09-14T16:31:57;3.58;;;0.45;;
26512;SDS011;14186;53.822;10.152;2022-09-14T16:36:57;2.40;;;0.40;;
26512;SDS011;14186;53.822;10.152;2022-09-14T16:41:59;2.85;;;0.50;;
26512;SDS011;14186;53.822;10.152;2022-09-14T16:47:00;0.73;;;0.35;;
26512;SDS011;14186;53.822;10.152;2022-09-14T16:52:00;1.25;;;0.40;;
26512;SDS011;14186;53.822;10.152;2022-09-14T16:57:02;0.70;;;0.30;;
26512;SDS011;14186;53.822;10.152;2022-09-14T17:02:02;5.50;;;0.50;;
26512;SDS011;14186;53.822;10.152;2022-09-14T17:07:02;2.08;;;0.50;;
26512;SDS011;14186;53.822;10.152;2022-09-14T17:12:04;3.25;;;0.90;;
26512;SDS011;14186;53.822;10.152;2022-09-14T17:17:06;1.85;;;0.70;;
26512;SDS011;14186;53.822;10.152;2022-09-14T17:22:06;2.65;;;0.63;;
26512;SDS011;14186;53.822;10.152;2022-09-14T17:27:07;1.05;;;0.38;;
26512;SDS011;14186;53.822;10.152;2022-09-14T17:32:08;1.92;;;0.47;;
26512;SDS011;14186;53.822;10.152;2022-09-14T17:37:08;2.45;;;0.40;;
26512;SDS011;14186;53.822;10.152;2022-09-14T17:42:09;3.60;;;0.80;;
26512;SDS011;14186;53.822;10.152;2022-09-14T17:47:10;1.80;;;0.70;;
26512;SDS011;14186;53.822;10.152;2022-09-14T17:52:10;11.82;;;1.05;;
26512;SDS011;14186;53.822;10.152;2022-09-14T17:57:12;2.00;;;1.02;;
26512;SDS011;14186;53.822;10.152;2022-09-14T18:02:12;2.15;;;0.80;;
26512;SDS011;14186;53.822;10.152;2022-09-14T18:07:12;1.98;;;0.70;;
26512;SDS011;14186;53.822;10.152;2022-09-14T18:12:14;3.22;;;0.85;;
26512;SDS011;14186;53.822;10.152;2022-09-14T18:17:14;2.17;;;1.10;;
26512;SDS011;14186;53.822;10.152;2022-09-14T18:22:14;1.17;;;0.50;;
26512;SDS011;14186;53.822;10.152;2022-09-14T18:27:17;1.92;;;0.57;;
26512;SDS011;14186;53.822;10.152;2022-09-14T18:32:17;2.78;;;0.60;;
26512;SDS011;14186;53.822;10.152;2022-09-14T18:37:17;2.00;;;0.40;;
26512;SDS011;14186;53.822;10.152;2022-09-14T18:42:19;1.77;;;0.35;;
26512;SDS011;14186;53.822;10.152;2022-09-14T18:47:19;1.33;;;0.40;;
26512;SDS011;14186;53.822;10.152;2022-09-14T18:52:19;2.33;;;0.43;;
26512;SDS011;14186;53.822;10.152;2022-09-14T18:57:21;4.28;;;0.70;;
26512;SDS011;14186;53.822;10.152;2022-09-14T19:02:22;1.77;;;0.50;;
26512;SDS011;14186;53.822;10.152;2022-09-14T19:07:22;1.23;;;0.40;;
26512;SDS011;14186;53.822;10.152;2022-09-14T19:12:24;2.75;;;0.65;;
26512;SDS011;14186;53.822;10.152;2022-09-14T19:17:24;2.22;;;0.57;;
26512;SDS011;14186;53.822;10.152;2022-09-14T19:22:26;2.65;;;0.70;;
26512;SDS011;14186;53.822;10.152;2022-09-14T19:27:29;4.60;;;0.60;;
26512;SDS011;14186;53.822;10.152;2022-09-14T19:32:29;2.30;;;0.50;;
26512;SDS011;14186;53.822;10.152;2022-09-14T19:37:30;2.95;;;0.85;;
26512;SDS011;14186;53.822;10.152;2022-09-14T19:42:32;2.88;;;0.80;;
26512;SDS011;14186;53.822;10.152;2022-09-14T19:47:32;3.05;;;0.75;;
26512;SDS011;14186;53.822;10.152;2022-09-14T19:52:34;5.35;;;1.08;;
26512;SDS011;14186;53.822;10.152;2022-09-14T19:57:35;2.10;;;0.73;;
26512;SDS011;14186;53.822;10.152;2022-09-14T20:02:35;4.25;;;1.55;;
26512;SDS011;14186;53.822;10.152;2022-09-14T20:07:36;9.50;;;3.22;;
26512;SDS011;14186;53.822;10.152;2022-09-14T20:12:38;9.93;;;3.47;;
26512;SDS011;14186;53.822;10.152;2022-09-14T20:17:39;5.65;;;2.40;;
26512;SDS011;14186;53.822;10.152;2022-09-14T20:22:39;4.10;;;1.77;;
26512;SDS011;14186;53.822;10.152;2022-09-14T20:27:41;5.65;;;2.10;;
26512;SDS011;14186;53.822;10.152;2022-09-14T20:32:41;6.60;;;2.20;;
26512;SDS011;14186;53.822;10.152;2022-09-14T20:37:41;4.15;;;1.80;;
26512;SDS011;14186;53.822;10.152;2022-09-14T20:42:44;5.90;;;2.00;;
26512;SDS011;14186;53.822;10.152;2022-09-14T20:47:44;4.78;;;1.85;;
26512;SDS011;14186;53.822;10.152;2022-09-14T20:52:44;4.07;;;1.80;;
26512;SDS011;14186;53.822;10.152;2022-09-14T20:57:46;6.22;;;1.90;;
26512;SDS011;14186;53.822;10.152;2022-09-14T21:02:49;5.65;;;1.50;;
26512;SDS011;14186;53.822;10.152;2022-09-14T21:07:50;5.07;;;1.65;;
26512;SDS011;14186;53.822;10.152;2022-09-14T21:12:52;5.13;;;1.40;;
26512;SDS011;14186;53.822;10.152;2022-09-14T21:17:52;3.42;;;1.13;;
26512;SDS011;14186;53.822;10.152;2022-09-14T21:22:53;5.93;;;1.08;;
26512;SDS011;14186;53.822;10.152;2022-09-14T21:27:54;4.05;;;1.08;;
26512;SDS011;14186;53.822;10.152;2022-09-14T21:32:54;4.50;;;1.38;;
26512;SDS011;14186;53.822;10.152;2022-09-14T21:37:55;7.20;;;1.55;;
26512;SDS011;14186;53.822;10.152;2022-09-14T21:42:56;4.18;;;2.00;;
26512;SDS011;14186;53.822;10.152;2022-09-14T21:47:56;4.18;;;1.17;;
26512;SDS011;14186;53.822;10.152;2022-09-14T21:52:56;7.55;;;1.63;;
26512;SDS011;14186;53.822;10.152;2022-09-14T21:57:58;3.53;;;1.67;;
26512;SDS011;14186;53.822;10.152;2022-09-14T22:02:58;5.95;;;1.50;;
26512;SDS011;14186;53.822;10.152;2022-09-14T22:07:58;4.93;;;1.23;;
26512;SDS011;14186;53.822;10.152;2022-09-14T22:13:00;5.30;;;1.30;;
26512;SDS011;14186;53.822;10.152;2022-09-14T22:18:00;5.75;;;1.67;;
26512;SDS011;14186;53.822;10.152;2022-09-14T22:23:00;11.15;;;3.38;;
26512;SDS011;14186;53.822;10.152;2022-09-14T22:28:02;6.18;;;1.38;;
26512;SDS011;14186;53.822;10.152;2022-09-14T22:33:02;6.93;;;1.45;;
26512;SDS011;14186;53.822;10.152;2022-09-14T22:38:02;8.13;;;1.60;;
26512;SDS011;14186;53.822;10.152;2022-09-14T22:43:04;5.78;;;1.58;;
26512;SDS011;14186;53.822;10.152;2022-09-14T22:48:05;5.22;;;1.85;;
26512;SDS011;14186;53.822;10.152;2022-09-14T22:53:05;6.68;;;1.95;;
26512;SDS011;14186;53.822;10.152;2022-09-14T22:58:07;6.60;;;1.77;;
26512;SDS011;14186;53.822;10.152;2022-09-14T23:03:08;4.88;;;1.40;;
26512;SDS011;14186;53.822;10.152;2022-09-14T23:08:09;6.55;;;1.45;;
26512;SDS011;14186;53.822;10.152;2022-09-14T23:13:11;9.18;;;2.63;;
26512;SDS011;14186;53.822;10.152;2022-09-14T23:18:11;3.90;;;1.20;;
26512;SDS011;14186;53.822;10.152;2022-09-14T23:23:12;4.60;;;1.50;;
26512;SDS011;14186;53.822;10.152;2022-09-14T23:28:13;3.13;;;1.20;;
26512;SDS011;14186;53.822;10.152;2022-09-14T23:33:14;3.95;;;1.40;;
26512;SDS011;14186;53.822;10.152;2022-09-14T23:38:14;9.00;;;1.88;;
26512;SDS011;14186;53.822;10.152;2022-09-14T23:43:15;5.63;;;1.92;;
26512;SDS011;14186;53.822;10.152;2022-09-14T23:48:16;5.68;;;1.88;;
26512;SDS011;14186;53.822;10.152;2022-09-14T23:53:16;3.50;;;1.80;;
26512;SDS011;14186;53.822;10.152;2022-09-14T23:58:18;5.40;;;1.70;;
